sensor_id;sensor_type;location;lat;lon;timestamp;P1;durP1;ratioP1;P2;durP2;ratioP2
58242;SDS011;50118;53.232;8.252;2023-07-31T00:01:13;7.63;;;3.35;;
58242;SDS011;50118;53.232;8.252;2023-07-31T00:03:39;7.22;;;3.60;;
58242;SDS011;50118;53.232;8.252;2023-07-31T00:06:04;7.85;;;3.65;;
58242;SDS011;50118;53.232;8.252;2023-07-31T00:08:30;7.80;;;3.80;;
58242;SDS011;50118;53.232;8.252;2023-07-31T00:10:55;6.95;;;3.50;;
58242;SDS011;50118;53.232;8.252;2023-07-31T00:13:24;7.38;;;4.05;;
58242;SDS011;50118;53.232;8.252;2023-07-31T00:15:58;9.35;;;4.03;;
58242;SDS011;50118;53.232;8.252;2023-07-31T00:19:10;6.15;;;3.63;;
58242;SDS011;50118;53.232;8.252;2023-07-31T00:21:16;8.93;;;3.60;;
58242;SDS011;50118;53.232;8.252;2023-07-31T00:23:42;6.78;;;3.72;;
58242;SDS011;50118;53.232;8.252;2023-07-31T00:26:08;7.18;;;3.47;;
58242;SDS011;50118;53.232;8.252;2023-07-31T00:28:33;7.13;;;3.63;;
58242;SDS011;50118;53.232;8.252;2023-07-31T00:31:23;6.47;;;3.50;;
58242;SDS011;50118;53.232;8.252;2023-07-31T00:33:52;6.28;;;3.17;;
58242;SDS011;50118;53.232;8.252;2023-07-31T00:36:18;5.43;;;2.80;;
58242;SDS011;50118;53.232;8.252;2023-07-31T00:38:52;6.10;;;2.70;;
58242;SDS011;50118;53.232;8.252;2023-07-31T00:41:18;5.40;;;2.78;;
58242;SDS011;50118;53.232;8.252;2023-07-31T00:43:53;5.57;;;2.83;;
58242;SDS011;50118;53.232;8.252;2023-07-31T00:46:21;4.78;;;2.50;;
58242;SDS011;50118;53.232;8.252;2023-07-31T00:48:47;6.70;;;2.60;;
58242;SDS011;50118;53.232;8.252;2023-07-31T00:51:22;4.78;;;2.58;;
58242;SDS011;50118;53.232;8.252;2023-07-31T00:54:10;4.10;;;2.30;;
58242;SDS011;50118;53.232;8.252;2023-07-31T00:56:36;4.70;;;2.40;;
58242;SDS011;50118;53.232;8.252;2023-07-31T00:59:02;4.40;;;2.40;;
58242;SDS011;50118;53.232;8.252;2023-07-31T01:01:28;5.00;;;2.60;;
58242;SDS011;50118;53.232;8.252;2023-07-31T01:03:54;4.65;;;2.50;;
58242;SDS011;50118;53.232;8.252;2023-07-31T01:06:27;5.60;;;2.60;;
58242;SDS011;50118;53.232;8.252;2023-07-31T01:12:02;4.75;;;2.30;;
58242;SDS011;50118;53.232;8.252;2023-07-31T01:14:32;4.25;;;2.38;;
58242;SDS011;50118;53.232;8.252;2023-07-31T01:16:57;4.15;;;2.38;;
58242;SDS011;50118;53.232;8.252;2023-07-31T01:19:23;3.75;;;2.47;;
58242;SDS011;50118;53.232;8.252;2023-07-31T01:27:39;4.70;;;2.50;;
58242;SDS011;50118;53.232;8.252;2023-07-31T01:30:34;5.00;;;2.42;;
58242;SDS011;50118;53.232;8.252;2023-07-31T01:33:21;5.80;;;2.35;;
58242;SDS011;50118;53.232;8.252;2023-07-31T01:35:47;4.00;;;2.40;;
58242;SDS011;50118;53.232;8.252;2023-07-31T01:38:14;3.80;;;2.40;;
58242;SDS011;50118;53.232;8.252;2023-07-31T01:40:43;4.38;;;2.40;;
58242;SDS011;50118;53.232;8.252;2023-07-31T01:43:08;4.72;;;2.47;;
58242;SDS011;50118;53.232;8.252;2023-07-31T01:45:34;4.43;;;2.38;;
58242;SDS011;50118;53.232;8.252;2023-07-31T01:48:00;3.67;;;2.40;;
58242;SDS011;50118;53.232;8.252;2023-07-31T01:50:25;4.50;;;2.50;;
58242;SDS011;50118;53.232;8.252;2023-07-31T01:53:00;4.45;;;2.53;;
58242;SDS011;50118;53.232;8.252;2023-07-31T01:55:28;4.55;;;2.45;;
58242;SDS011;50118;53.232;8.252;2023-07-31T01:57:54;4.07;;;2.80;;
58242;SDS011;50118;53.232;8.252;2023-07-31T02:00:19;4.22;;;2.78;;
58242;SDS011;50118;53.232;8.252;2023-07-31T02:02:45;3.72;;;2.78;;
58242;SDS011;50118;53.232;8.252;2023-07-31T02:05:11;4.50;;;3.00;;
58242;SDS011;50118;53.232;8.252;2023-07-31T02:07:39;3.95;;;2.67;;
58242;SDS011;50118;53.232;8.252;2023-07-31T02:10:04;5.22;;;2.90;;
58242;SDS011;50118;53.232;8.252;2023-07-31T02:12:30;5.03;;;2.85;;
58242;SDS011;50118;53.232;8.252;2023-07-31T02:14:57;5.70;;;3.25;;
58242;SDS011;50118;53.232;8.252;2023-07-31T02:17:22;5.82;;;3.25;;
58242;SDS011;50118;53.232;8.252;2023-07-31T02:19:48;6.55;;;3.40;;
58242;SDS011;50118;53.232;8.252;2023-07-31T02:22:19;4.63;;;3.53;;
58242;SDS011;50118;53.232;8.252;2023-07-31T02:24:45;5.15;;;3.90;;
58242;SDS011;50118;53.232;8.252;2023-07-31T02:27:10;6.10;;;3.83;;
58242;SDS011;50118;53.232;8.252;2023-07-31T02:29:36;4.80;;;3.92;;
58242;SDS011;50118;53.232;8.252;2023-07-31T02:32:01;5.85;;;3.90;;
58242;SDS011;50118;53.232;8.252;2023-07-31T02:34:27;5.20;;;4.03;;
58242;SDS011;50118;53.232;8.252;2023-07-31T02:36:52;5.60;;;3.95;;
58242;SDS011;50118;53.232;8.252;2023-07-31T02:39:17;6.20;;;3.90;;
58242;SDS011;50118;53.232;8.252;2023-07-31T02:41:43;4.80;;;3.95;;
58242;SDS011;50118;53.232;8.252;2023-07-31T02:44:09;5.13;;;4.18;;
58242;SDS011;50118;53.232;8.252;2023-07-31T02:46:35;8.60;;;4.10;;
58242;SDS011;50118;53.232;8.252;2023-07-31T02:49:01;6.10;;;4.00;;
58242;SDS011;50118;53.232;8.252;2023-07-31T02:51:29;5.60;;;3.92;;
58242;SDS011;50118;53.232;8.252;2023-07-31T02:53:55;5.18;;;3.85;;
58242;SDS011;50118;53.232;8.252;2023-07-31T02:56:20;7.53;;;4.47;;
58242;SDS011;50118;53.232;8.252;2023-07-31T02:58:46;5.45;;;3.88;;
58242;SDS011;50118;53.232;8.252;2023-07-31T03:01:11;7.18;;;4.25;;
58242;SDS011;50118;53.232;8.252;2023-07-31T03:03:37;6.40;;;4.63;;
58242;SDS011;50118;53.232;8.252;2023-07-31T03:06:03;5.82;;;4.28;;
58242;SDS011;50118;53.232;8.252;2023-07-31T03:08:29;7.28;;;4.53;;
58242;SDS011;50118;53.232;8.252;2023-07-31T03:10:54;6.93;;;4.25;;
58242;SDS011;50118;53.232;8.252;2023-07-31T03:13:22;5.75;;;4.35;;
58242;SDS011;50118;53.232;8.252;2023-07-31T03:15:47;5.78;;;4.50;;
58242;SDS011;50118;53.232;8.252;2023-07-31T03:18:13;7.10;;;4.90;;
58242;SDS011;50118;53.232;8.252;2023-07-31T03:20:41;7.18;;;5.40;;
58242;SDS011;50118;53.232;8.252;2023-07-31T03:23:08;5.55;;;4.85;;
58242;SDS011;50118;53.232;8.252;2023-07-31T03:25:33;5.78;;;4.78;;
58242;SDS011;50118;53.232;8.252;2023-07-31T03:27:59;6.13;;;4.60;;
58242;SDS011;50118;53.232;8.252;2023-07-31T03:30:24;5.70;;;4.40;;
58242;SDS011;50118;53.232;8.252;2023-07-31T03:32:50;5.47;;;4.68;;
58242;SDS011;50118;53.232;8.252;2023-07-31T03:35:15;6.60;;;5.00;;
58242;SDS011;50118;53.232;8.252;2023-07-31T03:37:41;6.35;;;5.25;;
58242;SDS011;50118;53.232;8.252;2023-07-31T03:40:06;5.50;;;4.53;;
58242;SDS011;50118;53.232;8.252;2023-07-31T03:42:32;6.50;;;4.88;;
58242;SDS011;50118;53.232;8.252;2023-07-31T03:44:58;7.20;;;4.57;;
58242;SDS011;50118;53.232;8.252;2023-07-31T03:47:24;6.13;;;5.20;;
58242;SDS011;50118;53.232;8.252;2023-07-31T03:49:49;6.72;;;4.97;;
58242;SDS011;50118;53.232;8.252;2023-07-31T03:52:15;5.75;;;4.97;;
58242;SDS011;50118;53.232;8.252;2023-07-31T03:54:41;7.20;;;5.07;;
58242;SDS011;50118;53.232;8.252;2023-07-31T03:57:06;6.25;;;4.88;;
58242;SDS011;50118;53.232;8.252;2023-07-31T03:59:32;5.55;;;4.50;;
58242;SDS011;50118;53.232;8.252;2023-07-31T04:02:01;5.82;;;4.60;;
58242;SDS011;50118;53.232;8.252;2023-07-31T04:04:26;6.00;;;4.57;;
58242;SDS011;50118;53.232;8.252;2023-07-31T04:06:52;6.18;;;4.45;;
58242;SDS011;50118;53.232;8.252;2023-07-31T04:09:18;5.15;;;4.05;;
58242;SDS011;50118;53.232;8.252;2023-07-31T04:11:43;5.60;;;4.28;;
58242;SDS011;50118;53.232;8.252;2023-07-31T04:14:09;6.20;;;4.55;;
58242;SDS011;50118;53.232;8.252;2023-07-31T04:16:34;5.68;;;4.30;;
58242;SDS011;50118;53.232;8.252;2023-07-31T04:19:00;6.25;;;4.20;;
58242;SDS011;50118;53.232;8.252;2023-07-31T04:21:25;5.50;;;4.28;;
58242;SDS011;50118;53.232;8.252;2023-07-31T04:23:51;6.93;;;4.70;;
58242;SDS011;50118;53.232;8.252;2023-07-31T04:26:16;5.70;;;4.22;;
58242;SDS011;50118;53.232;8.252;2023-07-31T04:28:42;5.68;;;4.30;;
58242;SDS011;50118;53.232;8.252;2023-07-31T04:31:08;5.60;;;4.57;;
58242;SDS011;50118;53.232;8.252;2023-07-31T04:33:34;5.82;;;4.00;;
58242;SDS011;50118;53.232;8.252;2023-07-31T04:35:59;5.60;;;4.07;;
58242;SDS011;50118;53.232;8.252;2023-07-31T04:38:25;6.25;;;4.07;;
58242;SDS011;50118;53.232;8.252;2023-07-31T04:40:50;4.90;;;4.00;;
58242;SDS011;50118;53.232;8.252;2023-07-31T04:43:16;4.50;;;3.55;;
58242;SDS011;50118;53.232;8.252;2023-07-31T04:45:42;5.07;;;3.90;;
58242;SDS011;50118;53.232;8.252;2023-07-31T04:48:19;4.30;;;3.40;;
58242;SDS011;50118;53.232;8.252;2023-07-31T04:50:45;4.75;;;3.65;;
58242;SDS011;50118;53.232;8.252;2023-07-31T04:53:10;4.60;;;3.60;;
58242;SDS011;50118;53.232;8.252;2023-07-31T04:55:36;4.80;;;3.85;;
58242;SDS011;50118;53.232;8.252;2023-07-31T04:58:01;4.38;;;3.60;;
58242;SDS011;50118;53.232;8.252;2023-07-31T05:00:27;5.18;;;3.53;;
58242;SDS011;50118;53.232;8.252;2023-07-31T05:02:59;4.40;;;3.22;;
58242;SDS011;50118;53.232;8.252;2023-07-31T05:05:25;4.45;;;3.30;;
58242;SDS011;50118;53.232;8.252;2023-07-31T05:07:51;5.47;;;3.47;;
58242;SDS011;50118;53.232;8.252;2023-07-31T05:10:16;4.03;;;2.97;;
58242;SDS011;50118;53.232;8.252;2023-07-31T05:15:20;5.38;;;3.13;;
58242;SDS011;50118;53.232;8.252;2023-07-31T05:17:55;4.75;;;3.03;;
58242;SDS011;50118;53.232;8.252;2023-07-31T05:20:20;3.50;;;3.00;;
58242;SDS011;50118;53.232;8.252;2023-07-31T05:22:46;4.07;;;2.70;;
58242;SDS011;50118;53.232;8.252;2023-07-31T05:25:12;3.92;;;2.58;;
58242;SDS011;50118;53.232;8.252;2023-07-31T05:27:38;3.25;;;2.30;;
58242;SDS011;50118;53.232;8.252;2023-07-31T05:30:21;3.97;;;2.42;;
58242;SDS011;50118;53.232;8.252;2023-07-31T05:32:53;2.72;;;2.20;;
58242;SDS011;50118;53.232;8.252;2023-07-31T05:35:33;4.78;;;2.10;;
58242;SDS011;50118;53.232;8.252;2023-07-31T05:37:59;2.42;;;1.90;;
58242;SDS011;50118;53.232;8.252;2023-07-31T05:40:25;2.45;;;1.70;;
58242;SDS011;50118;53.232;8.252;2023-07-31T05:43:18;2.35;;;1.70;;
58242;SDS011;50118;53.232;8.252;2023-07-31T05:45:43;2.13;;;1.50;;
58242;SDS011;50118;53.232;8.252;2023-07-31T05:48:09;1.95;;;1.52;;
58242;SDS011;50118;53.232;8.252;2023-07-31T05:53:38;1.40;;;1.30;;
58242;SDS011;50118;53.232;8.252;2023-07-31T05:56:05;3.00;;;1.50;;
58242;SDS011;50118;53.232;8.252;2023-07-31T05:58:31;2.10;;;1.50;;
58242;SDS011;50118;53.232;8.252;2023-07-31T06:00:58;1.92;;;1.42;;
58242;SDS011;50118;53.232;8.252;2023-07-31T06:03:30;1.63;;;1.30;;
58242;SDS011;50118;53.232;8.252;2023-07-31T06:05:55;1.70;;;1.40;;
58242;SDS011;50118;53.232;8.252;2023-07-31T06:08:21;2.10;;;1.35;;
58242;SDS011;50118;53.232;8.252;2023-07-31T06:10:54;1.80;;;1.20;;
58242;SDS011;50118;53.232;8.252;2023-07-31T06:16:14;1.45;;;1.30;;
58242;SDS011;50118;53.232;8.252;2023-07-31T06:18:40;1.42;;;1.30;;
58242;SDS011;50118;53.232;8.252;2023-07-31T06:21:19;1.65;;;1.13;;
58242;SDS011;50118;53.232;8.252;2023-07-31T06:23:44;1.60;;;1.20;;
58242;SDS011;50118;53.232;8.252;2023-07-31T06:26:31;2.40;;;1.20;;
58242;SDS011;50118;53.232;8.252;2023-07-31T06:29:00;1.65;;;1.20;;
58242;SDS011;50118;53.232;8.252;2023-07-31T06:31:35;1.95;;;1.20;;
58242;SDS011;50118;53.232;8.252;2023-07-31T06:34:21;1.55;;;1.20;;
58242;SDS011;50118;53.232;8.252;2023-07-31T06:39:31;1.48;;;1.20;;
58242;SDS011;50118;53.232;8.252;2023-07-31T06:48:16;2.30;;;1.08;;
58242;SDS011;50118;53.232;8.252;2023-07-31T06:50:42;1.45;;;1.10;;
58242;SDS011;50118;53.232;8.252;2023-07-31T06:53:32;1.15;;;0.90;;
58242;SDS011;50118;53.232;8.252;2023-07-31T06:56:04;1.13;;;0.80;;
58242;SDS011;50118;53.232;8.252;2023-07-31T06:58:29;1.48;;;1.05;;
58242;SDS011;50118;53.232;8.252;2023-07-31T07:07:02;0.90;;;0.80;;
58242;SDS011;50118;53.232;8.252;2023-07-31T07:09:28;0.90;;;0.65;;
58242;SDS011;50118;53.232;8.252;2023-07-31T07:12:07;0.60;;;0.60;;
58242;SDS011;50118;53.232;8.252;2023-07-31T07:20:37;2.20;;;0.80;;
58242;SDS011;50118;53.232;8.252;2023-07-31T07:23:23;0.90;;;0.73;;
58242;SDS011;50118;53.232;8.252;2023-07-31T07:25:49;1.05;;;0.70;;
58242;SDS011;50118;53.232;8.252;2023-07-31T07:28:18;1.38;;;0.70;;
58242;SDS011;50118;53.232;8.252;2023-07-31T07:30:44;0.90;;;0.57;;
58242;SDS011;50118;53.232;8.252;2023-07-31T07:33:09;1.38;;;0.70;;
58242;SDS011;50118;53.232;8.252;2023-07-31T07:35:50;2.00;;;0.70;;
58242;SDS011;50118;53.232;8.252;2023-07-31T07:41:12;1.02;;;0.70;;
58242;SDS011;50118;53.232;8.252;2023-07-31T07:43:59;1.42;;;0.65;;
58242;SDS011;50118;53.232;8.252;2023-07-31T07:46:27;1.33;;;0.80;;
58242;SDS011;50118;53.232;8.252;2023-07-31T07:49:02;0.85;;;0.73;;
58242;SDS011;50118;53.232;8.252;2023-07-31T07:51:41;0.70;;;0.63;;
58242;SDS011;50118;53.232;8.252;2023-07-31T07:54:34;1.10;;;0.80;;
58242;SDS011;50118;53.232;8.252;2023-07-31T08:00:16;3.17;;;1.40;;
58242;SDS011;50118;53.232;8.252;2023-07-31T08:03:02;4.13;;;2.10;;
58242;SDS011;50118;53.232;8.252;2023-07-31T08:05:28;6.60;;;3.00;;
58242;SDS011;50118;53.232;8.252;2023-07-31T08:08:01;8.10;;;4.22;;
58242;SDS011;50118;53.232;8.252;2023-07-31T08:10:27;9.50;;;4.40;;
58242;SDS011;50118;53.232;8.252;2023-07-31T08:18:59;16.80;;;7.38;;
58242;SDS011;50118;53.232;8.252;2023-07-31T08:21:39;11.75;;;6.25;;
58242;SDS011;50118;53.232;8.252;2023-07-31T08:27:44;15.82;;;7.70;;
58242;SDS011;50118;53.232;8.252;2023-07-31T08:30:26;17.70;;;7.70;;
58242;SDS011;50118;53.232;8.252;2023-07-31T08:33:14;16.52;;;7.97;;
58242;SDS011;50118;53.232;8.252;2023-07-31T08:35:40;15.88;;;7.90;;
58242;SDS011;50118;53.232;8.252;2023-07-31T08:38:21;22.27;;;8.57;;
58242;SDS011;50118;53.232;8.252;2023-07-31T08:40:50;16.83;;;7.57;;
58242;SDS011;50118;53.232;8.252;2023-07-31T08:43:16;14.65;;;8.10;;
58242;SDS011;50118;53.232;8.252;2023-07-31T08:48:55;17.98;;;8.48;;
58242;SDS011;50118;53.232;8.252;2023-07-31T08:51:29;17.35;;;8.43;;
58242;SDS011;50118;53.232;8.252;2023-07-31T08:54:41;18.25;;;8.98;;
58242;SDS011;50118;53.232;8.252;2023-07-31T08:57:07;18.05;;;8.40;;
58242;SDS011;50118;53.232;8.252;2023-07-31T09:00:07;17.58;;;8.50;;
58242;SDS011;50118;53.232;8.252;2023-07-31T09:03:06;18.00;;;8.15;;
58242;SDS011;50118;53.232;8.252;2023-07-31T09:05:59;18.50;;;8.38;;
58242;SDS011;50118;53.232;8.252;2023-07-31T09:09:01;17.45;;;7.50;;
58242;SDS011;50118;53.232;8.252;2023-07-31T09:12:13;15.63;;;7.70;;
58242;SDS011;50118;53.232;8.252;2023-07-31T09:14:39;17.08;;;7.60;;
58242;SDS011;50118;53.232;8.252;2023-07-31T09:17:06;14.85;;;6.97;;
58242;SDS011;50118;53.232;8.252;2023-07-31T09:19:52;13.85;;;7.45;;
58242;SDS011;50118;53.232;8.252;2023-07-31T09:22:43;12.23;;;6.35;;
58242;SDS011;50118;53.232;8.252;2023-07-31T09:25:24;13.43;;;6.90;;
58242;SDS011;50118;53.232;8.252;2023-07-31T09:28:11;11.10;;;6.35;;
58242;SDS011;50118;53.232;8.252;2023-07-31T09:31:04;12.50;;;6.70;;
58242;SDS011;50118;53.232;8.252;2023-07-31T09:33:30;14.35;;;6.97;;
58242;SDS011;50118;53.232;8.252;2023-07-31T09:36:07;11.68;;;6.18;;
58242;SDS011;50118;53.232;8.252;2023-07-31T09:44:48;9.93;;;6.15;;
58242;SDS011;50118;53.232;8.252;2023-07-31T09:50:24;11.50;;;5.80;;
58242;SDS011;50118;53.232;8.252;2023-07-31T09:53:05;10.02;;;5.15;;
58242;SDS011;50118;53.232;8.252;2023-07-31T10:01:47;7.95;;;5.20;;
58242;SDS011;50118;53.232;8.252;2023-07-31T10:04:31;9.40;;;5.30;;
58242;SDS011;50118;53.232;8.252;2023-07-31T10:07:30;6.82;;;5.15;;
58242;SDS011;50118;53.232;8.252;2023-07-31T10:10:06;7.50;;;5.25;;
58242;SDS011;50118;53.232;8.252;2023-07-31T10:12:33;8.88;;;5.47;;
58242;SDS011;50118;53.232;8.252;2023-07-31T10:15:24;8.48;;;5.43;;
58242;SDS011;50118;53.232;8.252;2023-07-31T10:21:20;7.32;;;5.10;;
58242;SDS011;50118;53.232;8.252;2023-07-31T10:23:33;7.78;;;4.80;;
58242;SDS011;50118;53.232;8.252;2023-07-31T10:26:18;7.75;;;4.70;;
58242;SDS011;50118;53.232;8.252;2023-07-31T10:28:45;5.97;;;4.85;;
58242;SDS011;50118;53.232;8.252;2023-07-31T10:31:15;6.40;;;4.35;;
58242;SDS011;50118;53.232;8.252;2023-07-31T10:40:18;6.78;;;4.28;;
58242;SDS011;50118;53.232;8.252;2023-07-31T10:42:50;8.20;;;4.68;;
58242;SDS011;50118;53.232;8.252;2023-07-31T10:45:24;6.05;;;4.25;;
58242;SDS011;50118;53.232;8.252;2023-07-31T10:48:01;7.00;;;4.22;;
58242;SDS011;50118;53.232;8.252;2023-07-31T10:50:29;4.88;;;3.70;;
58242;SDS011;50118;53.232;8.252;2023-07-31T10:52:57;5.78;;;3.63;;
58242;SDS011;50118;53.232;8.252;2023-07-31T10:55:43;6.03;;;3.45;;
58242;SDS011;50118;53.232;8.252;2023-07-31T11:01:03;4.97;;;3.60;;
58242;SDS011;50118;53.232;8.252;2023-07-31T11:03:48;5.18;;;3.65;;
58242;SDS011;50118;53.232;8.252;2023-07-31T11:09:41;5.03;;;2.90;;
58242;SDS011;50118;53.232;8.252;2023-07-31T11:12:27;5.28;;;2.88;;
58242;SDS011;50118;53.232;8.252;2023-07-31T11:15:14;3.80;;;2.60;;
58242;SDS011;50118;53.232;8.252;2023-07-31T11:17:40;3.47;;;2.20;;
58242;SDS011;50118;53.232;8.252;2023-07-31T11:20:15;4.40;;;2.20;;
58242;SDS011;50118;53.232;8.252;2023-07-31T11:25:30;2.78;;;1.70;;
58242;SDS011;50118;53.232;8.252;2023-07-31T11:27:57;2.35;;;1.60;;
58242;SDS011;50118;53.232;8.252;2023-07-31T11:30:27;2.40;;;1.70;;
58242;SDS011;50118;53.232;8.252;2023-07-31T11:32:56;3.28;;;1.75;;
58242;SDS011;50118;53.232;8.252;2023-07-31T11:35:21;2.03;;;1.60;;
58242;SDS011;50118;53.232;8.252;2023-07-31T11:37:47;1.60;;;1.23;;
58242;SDS011;50118;53.232;8.252;2023-07-31T11:40:14;1.90;;;1.27;;
58242;SDS011;50118;53.232;8.252;2023-07-31T11:42:40;2.00;;;1.10;;
58242;SDS011;50118;53.232;8.252;2023-07-31T11:45:06;1.55;;;1.15;;
58242;SDS011;50118;53.232;8.252;2023-07-31T11:47:34;2.13;;;1.10;;
58242;SDS011;50118;53.232;8.252;2023-07-31T11:52:50;2.13;;;1.10;;
58242;SDS011;50118;53.232;8.252;2023-07-31T11:55:24;1.58;;;1.02;;
58242;SDS011;50118;53.232;8.252;2023-07-31T11:57:54;2.15;;;1.10;;
58242;SDS011;50118;53.232;8.252;2023-07-31T12:00:22;1.80;;;1.10;;
58242;SDS011;50118;53.232;8.252;2023-07-31T12:02:48;1.95;;;1.20;;
58242;SDS011;50118;53.232;8.252;2023-07-31T12:05:15;1.10;;;1.00;;
58242;SDS011;50118;53.232;8.252;2023-07-31T12:07:48;1.58;;;1.20;;
58242;SDS011;50118;53.232;8.252;2023-07-31T12:10:30;1.80;;;1.33;;
58242;SDS011;50118;53.232;8.252;2023-07-31T12:12:58;1.38;;;1.17;;
58242;SDS011;50118;53.232;8.252;2023-07-31T12:15:30;1.52;;;1.20;;
58242;SDS011;50118;53.232;8.252;2023-07-31T12:17:59;1.42;;;1.23;;
58242;SDS011;50118;53.232;8.252;2023-07-31T12:20:29;1.65;;;1.30;;
58242;SDS011;50118;53.232;8.252;2023-07-31T12:22:56;1.92;;;1.30;;
58242;SDS011;50118;53.232;8.252;2023-07-31T12:25:22;2.50;;;1.30;;
58242;SDS011;50118;53.232;8.252;2023-07-31T12:27:48;3.10;;;1.30;;
58242;SDS011;50118;53.232;8.252;2023-07-31T12:30:28;1.55;;;1.45;;
58242;SDS011;50118;53.232;8.252;2023-07-31T12:33:22;1.98;;;1.40;;
58242;SDS011;50118;53.232;8.252;2023-07-31T12:35:56;1.77;;;1.48;;
58242;SDS011;50118;53.232;8.252;2023-07-31T12:38:22;4.07;;;2.05;;
58242;SDS011;50118;53.232;8.252;2023-07-31T12:40:51;1.40;;;1.25;;
58242;SDS011;50118;53.232;8.252;2023-07-31T12:43:19;1.52;;;1.42;;
58242;SDS011;50118;53.232;8.252;2023-07-31T12:45:48;1.60;;;1.45;;
58242;SDS011;50118;53.232;8.252;2023-07-31T12:48:17;2.08;;;1.63;;
58242;SDS011;50118;53.232;8.252;2023-07-31T12:50:43;3.15;;;1.70;;
58242;SDS011;50118;53.232;8.252;2023-07-31T12:53:08;2.17;;;1.80;;
58242;SDS011;50118;53.232;8.252;2023-07-31T12:55:34;1.90;;;1.70;;
58242;SDS011;50118;53.232;8.252;2023-07-31T12:58:01;2.50;;;1.80;;
58242;SDS011;50118;53.232;8.252;2023-07-31T13:00:27;2.75;;;1.85;;
58242;SDS011;50118;53.232;8.252;2023-07-31T13:02:54;3.95;;;2.10;;
58242;SDS011;50118;53.232;8.252;2023-07-31T13:05:20;2.42;;;1.90;;
58242;SDS011;50118;53.232;8.252;2023-07-31T13:07:46;2.83;;;2.10;;
58242;SDS011;50118;53.232;8.252;2023-07-31T13:10:15;3.40;;;2.03;;
58242;SDS011;50118;53.232;8.252;2023-07-31T13:12:40;3.38;;;2.13;;
58242;SDS011;50118;53.232;8.252;2023-07-31T13:15:06;3.75;;;2.22;;
58242;SDS011;50118;53.232;8.252;2023-07-31T13:17:32;3.38;;;2.20;;
58242;SDS011;50118;53.232;8.252;2023-07-31T13:19:58;4.00;;;2.13;;
58242;SDS011;50118;53.232;8.252;2023-07-31T13:25:25;2.95;;;2.22;;
58242;SDS011;50118;53.232;8.252;2023-07-31T13:28:01;3.55;;;2.38;;
58242;SDS011;50118;53.232;8.252;2023-07-31T13:30:26;3.75;;;2.35;;
58242;SDS011;50118;53.232;8.252;2023-07-31T13:32:52;2.83;;;2.05;;
58242;SDS011;50118;53.232;8.252;2023-07-31T13:35:18;2.63;;;2.00;;
58242;SDS011;50118;53.232;8.252;2023-07-31T13:37:51;3.60;;;2.00;;
58242;SDS011;50118;53.232;8.252;2023-07-31T13:40:17;4.15;;;2.10;;
58242;SDS011;50118;53.232;8.252;2023-07-31T13:42:42;2.40;;;1.73;;
58242;SDS011;50118;53.232;8.252;2023-07-31T13:45:28;2.10;;;1.70;;
58242;SDS011;50118;53.232;8.252;2023-07-31T13:47:54;3.17;;;2.00;;
58242;SDS011;50118;53.232;8.252;2023-07-31T13:50:20;2.42;;;1.80;;
58242;SDS011;50118;53.232;8.252;2023-07-31T13:52:47;2.78;;;1.70;;
58242;SDS011;50118;53.232;8.252;2023-07-31T13:57:55;2.38;;;1.80;;
58242;SDS011;50118;53.232;8.252;2023-07-31T14:00:24;2.70;;;1.80;;
58242;SDS011;50118;53.232;8.252;2023-07-31T14:02:54;2.50;;;1.88;;
58242;SDS011;50118;53.232;8.252;2023-07-31T14:05:19;2.75;;;1.98;;
58242;SDS011;50118;53.232;8.252;2023-07-31T14:07:45;3.25;;;2.10;;
58242;SDS011;50118;53.232;8.252;2023-07-31T14:10:20;3.15;;;2.20;;
58242;SDS011;50118;53.232;8.252;2023-07-31T14:12:48;3.10;;;2.15;;
58242;SDS011;50118;53.232;8.252;2023-07-31T14:15:19;3.45;;;2.20;;
58242;SDS011;50118;53.232;8.252;2023-07-31T14:17:51;3.33;;;1.67;;
58242;SDS011;50118;53.232;8.252;2023-07-31T14:20:17;2.92;;;1.80;;
58242;SDS011;50118;53.232;8.252;2023-07-31T14:22:43;2.33;;;1.73;;
58242;SDS011;50118;53.232;8.252;2023-07-31T14:25:08;2.97;;;1.70;;
58242;SDS011;50118;53.232;8.252;2023-07-31T14:27:35;1.60;;;1.50;;
58242;SDS011;50118;53.232;8.252;2023-07-31T14:30:02;1.73;;;1.30;;
58242;SDS011;50118;53.232;8.252;2023-07-31T14:32:28;1.75;;;1.20;;
58242;SDS011;50118;53.232;8.252;2023-07-31T14:34:59;2.42;;;1.20;;
58242;SDS011;50118;53.232;8.252;2023-07-31T14:37:25;1.65;;;1.10;;
58242;SDS011;50118;53.232;8.252;2023-07-31T14:39:52;1.08;;;0.90;;
58242;SDS011;50118;53.232;8.252;2023-07-31T14:42:18;1.88;;;0.98;;
58242;SDS011;50118;53.232;8.252;2023-07-31T14:44:45;1.00;;;0.90;;
58242;SDS011;50118;53.232;8.252;2023-07-31T14:47:12;1.15;;;1.00;;
58242;SDS011;50118;53.232;8.252;2023-07-31T14:49:37;1.27;;;1.00;;
58242;SDS011;50118;53.232;8.252;2023-07-31T14:52:03;1.23;;;0.90;;
58242;SDS011;50118;53.232;8.252;2023-07-31T14:54:29;1.50;;;1.02;;
58242;SDS011;50118;53.232;8.252;2023-07-31T14:56:54;1.60;;;0.90;;
58242;SDS011;50118;53.232;8.252;2023-07-31T14:59:20;1.63;;;1.20;;
58242;SDS011;50118;53.232;8.252;2023-07-31T15:01:45;0.95;;;0.88;;
58242;SDS011;50118;53.232;8.252;2023-07-31T15:04:11;1.60;;;1.08;;
58242;SDS011;50118;53.232;8.252;2023-07-31T15:06:36;2.97;;;0.90;;
58242;SDS011;50118;53.232;8.252;2023-07-31T15:09:02;0.90;;;0.88;;
58242;SDS011;50118;53.232;8.252;2023-07-31T15:11:27;1.33;;;0.90;;
58242;SDS011;50118;53.232;8.252;2023-07-31T15:13:52;1.85;;;1.08;;
58242;SDS011;50118;53.232;8.252;2023-07-31T15:16:18;1.10;;;1.00;;
58242;SDS011;50118;53.232;8.252;2023-07-31T15:18:45;2.67;;;1.20;;
58242;SDS011;50118;53.232;8.252;2023-07-31T15:21:10;1.48;;;1.00;;
58242;SDS011;50118;53.232;8.252;2023-07-31T15:23:36;1.67;;;1.20;;
58242;SDS011;50118;53.232;8.252;2023-07-31T15:26:03;2.97;;;1.42;;
58242;SDS011;50118;53.232;8.252;2023-07-31T15:28:31;1.52;;;1.10;;
58242;SDS011;50118;53.232;8.252;2023-07-31T15:31:02;2.08;;;1.23;;
58242;SDS011;50118;53.232;8.252;2023-07-31T15:33:30;3.30;;;1.30;;
58242;SDS011;50118;53.232;8.252;2023-07-31T15:38:27;3.53;;;1.67;;
58242;SDS011;50118;53.232;8.252;2023-07-31T15:40:52;3.10;;;1.40;;
58242;SDS011;50118;53.232;8.252;2023-07-31T15:43:18;2.30;;;1.60;;
58242;SDS011;50118;53.232;8.252;2023-07-31T15:45:44;3.28;;;1.80;;
58242;SDS011;50118;53.232;8.252;2023-07-31T15:48:10;3.47;;;1.65;;
58242;SDS011;50118;53.232;8.252;2023-07-31T15:50:35;3.63;;;1.80;;
58242;SDS011;50118;53.232;8.252;2023-07-31T15:53:01;3.38;;;1.67;;
58242;SDS011;50118;53.232;8.252;2023-07-31T15:55:26;3.78;;;1.80;;
58242;SDS011;50118;53.232;8.252;2023-07-31T15:57:54;3.25;;;1.70;;
58242;SDS011;50118;53.232;8.252;2023-07-31T16:00:20;3.58;;;2.08;;
58242;SDS011;50118;53.232;8.252;2023-07-31T16:02:46;3.88;;;2.10;;
58242;SDS011;50118;53.232;8.252;2023-07-31T16:05:11;4.32;;;2.10;;
58242;SDS011;50118;53.232;8.252;2023-07-31T16:07:36;5.07;;;2.20;;
58242;SDS011;50118;53.232;8.252;2023-07-31T16:10:02;4.15;;;2.60;;
58242;SDS011;50118;53.232;8.252;2023-07-31T16:12:28;3.05;;;2.30;;
58242;SDS011;50118;53.232;8.252;2023-07-31T16:14:53;4.65;;;2.65;;
58242;SDS011;50118;53.232;8.252;2023-07-31T16:17:19;4.10;;;2.83;;
58242;SDS011;50118;53.232;8.252;2023-07-31T16:19:44;4.57;;;3.00;;
58242;SDS011;50118;53.232;8.252;2023-07-31T16:22:09;5.35;;;3.60;;
58242;SDS011;50118;53.232;8.252;2023-07-31T16:24:35;5.35;;;3.50;;
58242;SDS011;50118;53.232;8.252;2023-07-31T16:27:01;6.47;;;3.60;;
58242;SDS011;50118;53.232;8.252;2023-07-31T16:29:27;4.78;;;3.70;;
58242;SDS011;50118;53.232;8.252;2023-07-31T16:31:52;5.38;;;3.45;;
58242;SDS011;50118;53.232;8.252;2023-07-31T16:34:18;5.45;;;3.78;;
58242;SDS011;50118;53.232;8.252;2023-07-31T16:36:43;5.20;;;3.65;;
58242;SDS011;50118;53.232;8.252;2023-07-31T16:39:09;6.30;;;4.30;;
58242;SDS011;50118;53.232;8.252;2023-07-31T16:41:34;5.93;;;4.38;;
58242;SDS011;50118;53.232;8.252;2023-07-31T16:44:00;5.15;;;3.75;;